Pittston Township, Pennsylvania
Current Conditions -  °F | °C
As of 6:54 PM on Friday 21 Nov 2014 (Local Time) from KAVP Reporting Station
Clear Clear  
Wind Chill: -9°   Ceiling: Unl
Heat Index: -3°   Visibility: 10mi
Dew Point: -13°   Wind: 10mph
Humidity: 47%   Direction: 280°W
Pressure: 30.42"   Gusts: NA
Location:  41.2973°N, 75.7399°W
Report Text: KAVP 212354Z AUTO 28009KT 10SM CLR M03/M13 A3042 RMK AO2 SLP315 T10331133 10006 21039 51019
Loading
Personal Weather Stations






























Interactive Weather Map New forecast layout! Learn more

10-Day Weather Forecast

Advertisements
Track Severe Weather on mobile